Time;durP1;ratioP1;P1;durP2;ratioP2;P2;SDS_P1;SDS_P2;PMS_P1;PMS_P2;Temp;Humidity;BMP_temperature;BMP_pressure;BME280_temperature;BME280_humidity;BME280_pressure;Samples;Min_cycle;Max_cycle;Signal;HPM_P1;HPM_P2
2023/10/03 00:01:36;;;;;;;13.73;8.88;;;24.60;59.60;;;;;;5036099;28;20025;-63
2023/10/03 00:04:02;;;;;;;13.23;8.70;;;24.60;59.50;;;;;;5035917;28;20021;-59
2023/10/03 00:06:29;;;;;;;14.20;8.45;;;24.60;59.50;;;;;;5033185;28;20052;-63
2023/10/03 00:08:55;;;;;;;13.93;8.60;;;24.60;60.00;;;;;;5021554;28;20048;-63
2023/10/03 00:11:22;;;;;;;14.45;8.40;;;24.60;59.30;;;;;;5014633;28;20029;-62
2023/10/03 00:13:50;;;;;;;14.98;9.00;;;24.60;59.30;;;;;;5031799;28;20456;-63
2023/10/03 00:16:17;;;;;;;13.88;8.77;;;24.60;59.20;;;;;;5031880;28;20083;-64
2023/10/03 00:18:44;;;;;;;13.68;8.88;;;24.60;59.20;;;;;;5038702;28;20025;-60
2023/10/03 00:21:09;;;;;;;17.80;9.13;;;24.60;59.10;;;;;;5035068;28;20101;-65
2023/10/03 00:23:35;;;;;;;14.50;9.20;;;24.60;59.00;;;;;;5034562;28;20412;-62
2023/10/03 00:26:02;;;;;;;14.23;9.55;;;24.60;59.00;;;;;;5036143;28;20100;-60
2023/10/03 00:28:30;;;;;;;13.88;8.88;;;24.60;58.90;;;;;;5035107;28;20030;-62
2023/10/03 00:30:56;;;;;;;13.45;8.60;;;24.60;58.90;;;;;;5038013;28;20309;-62
2023/10/03 00:33:25;;;;;;;16.10;10.35;;;24.60;58.90;;;;;;5022936;28;20045;-62
2023/10/03 00:35:52;;;;;;;14.63;9.05;;;24.60;58.80;;;;;;5018835;28;20037;-61
2023/10/03 00:38:18;;;;;;;14.68;9.70;;;24.60;58.70;;;;;;5032812;28;20080;-62
2023/10/03 00:40:55;;;;;;;15.00;9.10;;;24.60;58.70;;;;;;5013149;28;20154;-62
2023/10/03 00:43:22;;;;;;;14.30;8.80;;;24.60;58.60;;;;;;5026027;28;20071;-61
2023/10/03 00:45:48;;;;;;;14.82;9.45;;;24.50;58.50;;;;;;5020589;28;20107;-62
2023/10/03 00:48:17;;;;;;;14.60;9.90;;;24.60;58.50;;;;;;5032253;28;20108;-62
2023/10/03 00:50:42;;;;;;;16.60;9.77;;;24.50;58.40;;;;;;5012634;28;20037;-62
2023/10/03 00:53:09;;;;;;;14.38;9.20;;;24.50;58.40;;;;;;5015584;28;20178;-61
2023/10/03 00:55:36;;;;;;;15.82;9.68;;;24.50;58.30;;;;;;5022707;28;20033;-62
2023/10/03 01:00:43;;;;;;;15.88;9.98;;;24.50;58.30;;;;;;5034880;28;20033;-60
2023/10/03 01:03:27;;;;;;;16.52;9.63;;;24.50;58.20;;;;;;5017444;28;20151;-61
2023/10/03 01:05:54;;;;;;;16.90;10.00;;;24.50;58.20;;;;;;5030780;28;20115;-62
2023/10/03 01:08:21;;;;;;;15.63;10.15;;;24.50;58.20;;;;;;5016682;28;20021;-63
2023/10/03 01:10:47;;;;;;;17.55;10.45;;;24.50;58.20;;;;;;5035434;28;20036;-63
2023/10/03 01:13:13;;;;;;;16.40;10.18;;;24.50;58.10;;;;;;5015378;28;20063;-64
2023/10/03 01:15:40;;;;;;;17.13;10.30;;;24.50;58.10;;;;;;5040240;28;20029;-62
2023/10/03 01:18:12;;;;;;;14.93;10.05;;;24.50;58.10;;;;;;5038086;28;20044;-61
2023/10/03 01:20:40;;;;;;;15.40;9.55;;;24.50;58.10;;;;;;5038430;28;20122;-60
2023/10/03 01:23:10;;;;;;;14.77;9.40;;;24.50;58.10;;;;;;5034763;28;20041;-60
2023/10/03 01:25:42;;;;;;;15.02;9.90;;;24.50;58.00;;;;;;5019338;28;20093;-61
2023/10/03 01:28:12;;;;;;;15.30;9.55;;;24.50;58.00;;;;;;5020083;28;20106;-60
2023/10/03 01:30:43;;;;;;;17.95;10.00;;;24.50;57.90;;;;;;5023454;28;20033;-62
2023/10/03 01:33:12;;;;;;;16.30;9.85;;;24.50;57.90;;;;;;5039042;28;20080;-63
2023/10/03 01:35:38;;;;;;;17.25;10.82;;;24.50;58.50;;;;;;5031689;28;20129;-63
2023/10/03 01:38:05;;;;;;;15.40;9.55;;;24.50;58.00;;;;;;5018617;28;20040;-60
2023/10/03 01:40:33;;;;;;;15.27;9.50;;;24.50;57.80;;;;;;5011621;28;20041;-61
2023/10/03 01:42:59;;;;;;;17.58;10.50;;;24.50;57.80;;;;;;5016296;28;20045;-62
2023/10/03 01:45:27;;;;;;;17.00;10.32;;;24.40;57.70;;;;;;5021645;28;20111;-63
2023/10/03 01:47:58;;;;;;;16.58;10.40;;;24.50;57.70;;;;;;5016140;28;20034;-63
2023/10/03 01:50:28;;;;;;;18.13;10.43;;;24.50;57.70;;;;;;5030265;28;20025;-61
2023/10/03 01:52:54;;;;;;;18.02;10.63;;;24.40;57.70;;;;;;5018004;28;20111;-63
2023/10/03 01:55:21;;;;;;;16.75;10.10;;;24.40;57.60;;;;;;5015707;28;20029;-62
2023/10/03 01:57:48;;;;;;;17.65;10.65;;;24.40;57.60;;;;;;5025833;28;20036;-60
2023/10/03 02:00:25;;;;;;;16.67;10.40;;;24.40;57.60;;;;;;5021079;28;20057;-62
2023/10/03 02:03:05;;;;;;;17.70;10.68;;;24.40;57.50;;;;;;5026346;28;20432;-64
2023/10/03 02:05:36;;;;;;;17.65;10.18;;;24.40;57.50;;;;;;5019882;28;20307;-61
2023/10/03 02:08:10;;;;;;;17.60;9.98;;;24.40;57.50;;;;;;5022097;28;20309;-61
2023/10/03 02:10:36;;;;;;;;;;;24.40;57.50;;;;;;5033863;28;20097;-59
2023/10/03 02:13:09;;;;;;;17.05;10.18;;;24.40;57.50;;;;;;5036276;28;20005;-59
2023/10/03 02:15:38;;;;;;;17.50;10.47;;;24.40;57.50;;;;;;5043726;28;20026;-63
2023/10/03 02:18:05;;;;;;;18.13;10.45;;;24.40;57.40;;;;;;5014391;28;20017;-60
2023/10/03 02:20:38;;;;;;;16.58;10.73;;;24.40;57.40;;;;;;5038381;28;20467;-61
2023/10/03 02:23:08;;;;;;;16.50;9.88;;;24.40;57.40;;;;;;5034830;28;20022;-61
2023/10/03 02:25:37;;;;;;;15.75;10.00;;;24.40;57.40;;;;;;5018030;28;20033;-60
2023/10/03 02:28:05;;;;;;;16.80;10.18;;;24.40;57.40;;;;;;5034689;28;20091;-63
2023/10/03 02:30:31;;;;;;;17.70;10.68;;;24.40;57.40;;;;;;5035917;28;20039;-60
2023/10/03 02:33:07;;;;;;;17.80;10.70;;;24.40;57.40;;;;;;5032975;28;20033;-61
2023/10/03 02:35:33;;;;;;;16.92;10.40;;;24.40;57.30;;;;;;5017546;28;20029;-60
2023/10/03 02:37:59;;;;;;;17.38;10.43;;;24.40;57.30;;;;;;5018298;28;20083;-60
2023/10/03 02:40:30;;;;;;;18.65;11.07;;;24.40;57.30;;;;;;5026735;28;20171;-60
2023/10/03 02:42:59;;;;;;;15.27;9.70;;;24.40;57.30;;;;;;5017965;28;20450;-61
2023/10/03 02:45:27;;;;;;;17.02;10.70;;;24.40;57.30;;;;;;5018666;28;20109;-62
2023/10/03 02:48:08;;;;;;;18.67;10.38;;;24.40;57.30;;;;;;5016582;28;20021;-60
2023/10/03 02:50:34;;;;;;;17.33;10.80;;;24.40;57.20;;;;;;5034385;28;20029;-61
2023/10/03 02:53:12;;;;;;;18.45;11.05;;;24.40;57.20;;;;;;5016452;28;20044;-60
2023/10/03 02:55:38;;;;;;;16.45;9.95;;;24.40;57.20;;;;;;5015321;28;20082;-61
2023/10/03 02:58:05;;;;;;;15.38;9.82;;;24.40;57.20;;;;;;5041162;28;20098;-64
2023/10/03 03:00:33;;;;;;;16.45;10.90;;;24.40;57.20;;;;;;5024229;28;20022;-63
2023/10/03 03:02:59;;;;;;;19.23;11.50;;;24.40;57.20;;;;;;5019512;28;20022;-61
2023/10/03 03:05:35;;;;;;;17.45;10.80;;;24.40;57.20;;;;;;5018775;28;20033;-62
2023/10/03 03:10:41;;;;;;;17.98;11.00;;;24.40;57.10;;;;;;5046602;28;20090;-61
2023/10/03 03:13:08;;;;;;;17.10;10.65;;;24.40;57.10;;;;;;5038557;28;20017;-63
2023/10/03 03:15:37;;;;;;;16.83;9.90;;;24.40;57.10;;;;;;5019812;28;20025;-62
2023/10/03 03:18:03;;;;;;;16.98;10.38;;;24.40;57.10;;;;;;5040330;28;20493;-62
2023/10/03 03:20:37;;;;;;;17.88;10.88;;;24.40;57.10;;;;;;5039974;28;20032;-61
2023/10/03 03:23:03;;;;;;;17.53;10.73;;;24.40;57.10;;;;;;5035937;28;20041;-63
2023/10/03 03:25:38;;;;;;;18.05;10.57;;;24.40;57.10;;;;;;5008860;28;20048;-60
2023/10/03 03:28:12;;;;;;;17.33;10.45;;;24.40;57.10;;;;;;5037868;28;20473;-60
2023/10/03 03:30:45;;;;;;;15.82;10.50;;;24.40;57.10;;;;;;5016285;28;20072;-62
2023/10/03 03:33:19;;;;;;;16.40;10.70;;;24.40;57.10;;;;;;5022212;28;20197;-63
2023/10/03 03:35:46;;;;;;;16.73;10.17;;;24.40;57.10;;;;;;5014604;28;20464;-61
2023/10/03 03:38:20;;;;;;;16.85;10.10;;;24.40;57.10;;;;;;5033100;28;20119;-60
2023/10/03 03:40:56;;;;;;;16.08;9.82;;;24.40;57.10;;;;;;5034726;28;20038;-61
2023/10/03 03:43:22;;;;;;;17.13;10.45;;;24.40;57.10;;;;;;5035206;28;20348;-61
2023/10/03 03:45:49;;;;;;;17.75;10.25;;;24.40;57.10;;;;;;5031917;28;20102;-61
2023/10/03 03:48:15;;;;;;;16.52;10.52;;;24.40;57.10;;;;;;5038865;28;20029;-61
2023/10/03 03:50:41;;;;;;;16.98;10.05;;;24.40;57.10;;;;;;5016615;28;20032;-60
2023/10/03 03:53:08;;;;;;;17.42;10.02;;;24.40;57.10;;;;;;5039213;28;20051;-63
2023/10/03 03:55:35;;;;;;;15.43;9.55;;;24.40;57.10;;;;;;5021961;28;20061;-61
2023/10/03 03:58:23;;;;;;;17.15;10.85;;;24.40;57.10;;;;;;5033530;28;20029;-61
2023/10/03 04:00:50;;;;;;;18.88;11.00;;;24.40;57.10;;;;;;5022011;28;20036;-64
2023/10/03 04:03:17;;;;;;;16.00;9.55;;;24.40;57.10;;;;;;5020738;28;20033;-61
2023/10/03 04:05:49;;;;;;;16.17;9.63;;;24.40;57.10;;;;;;5037391;28;21317;-61
2023/10/03 04:08:15;;;;;;;18.30;10.95;;;24.40;57.10;;;;;;5036965;28;20118;-60
2023/10/03 04:10:44;;;;;;;17.23;10.45;;;24.40;57.10;;;;;;5020997;28;20033;-62
2023/10/03 04:13:10;;;;;;;17.35;10.68;;;24.40;57.10;;;;;;5037428;28;20505;-64
2023/10/03 04:15:40;;;;;;;17.50;10.05;;;24.40;57.10;;;;;;5032363;28;20080;-61
2023/10/03 04:18:14;;;;;;;16.50;10.45;;;24.40;57.10;;;;;;5040425;28;20025;-62
2023/10/03 04:20:44;;;;;;;14.57;9.25;;;24.40;57.10;;;;;;5017505;28;20112;-62
2023/10/03 04:23:11;;;;;;;16.85;9.95;;;24.40;57.10;;;;;;5044001;28;20390;-62
2023/10/03 04:25:39;;;;;;;14.48;9.15;;;24.40;57.10;;;;;;5017343;28;20030;-63
2023/10/03 04:28:06;;;;;;;16.08;9.30;;;24.40;57.20;;;;;;5024653;28;20792;-60
2023/10/03 04:30:32;;;;;;;14.77;9.50;;;24.40;57.10;;;;;;5028841;28;20033;-63
2023/10/03 04:32:58;;;;;;;15.27;8.50;;;24.40;57.10;;;;;;5047874;28;20401;-62
2023/10/03 04:35:25;;;;;;;15.20;9.10;;;24.40;57.20;;;;;;5047077;28;20108;-61
2023/10/03 04:37:52;;;;;;;15.93;8.95;;;24.40;57.10;;;;;;5011154;28;20036;-65
2023/10/03 04:40:33;;;;;;;14.43;8.60;;;24.40;57.20;;;;;;5027388;28;20104;-61
2023/10/03 04:43:00;;;;;;;14.63;8.77;;;24.40;57.10;;;;;;5020662;28;20040;-60
2023/10/03 04:45:26;;;;;;;14.95;9.43;;;24.40;57.20;;;;;;5045300;28;20108;-61
2023/10/03 04:47:52;;;;;;;13.48;8.15;;;24.40;57.20;;;;;;5043340;28;20048;-59
2023/10/03 04:50:24;;;;;;;15.13;8.70;;;24.40;57.20;;;;;;5026998;28;20352;-60
2023/10/03 04:52:50;;;;;;;11.45;7.82;;;24.40;57.20;;;;;;5020064;28;20032;-63
2023/10/03 04:55:17;;;;;;;12.60;8.05;;;24.40;57.20;;;;;;5047569;28;20329;-61
2023/10/03 04:57:48;;;;;;;11.60;6.78;;;24.40;57.20;;;;;;5028238;28;20028;-62
2023/10/03 05:00:16;;;;;;;10.95;6.80;;;24.40;57.20;;;;;;5042877;28;20409;-62
2023/10/03 05:02:47;;;;;;;10.90;6.43;;;24.40;57.20;;;;;;5027136;28;20428;-62
2023/10/03 05:05:24;;;;;;;11.20;7.05;;;24.40;57.20;;;;;;5027434;28;20333;-61
2023/10/03 05:07:52;;;;;;;8.90;5.75;;;24.40;57.20;;;;;;5042569;28;20078;-61
2023/10/03 05:10:22;;;;;;;10.27;6.10;;;24.40;57.20;;;;;;5026259;28;20036;-62
2023/10/03 05:12:50;;;;;;;9.32;5.55;;;24.40;57.10;;;;;;5027611;28;20432;-62
2023/10/03 05:15:16;;;;;;;9.52;5.65;;;24.40;57.10;;;;;;5027848;28;20070;-62
2023/10/03 05:17:46;;;;;;;10.35;5.50;;;24.40;57.10;;;;;;5040710;28;20473;-63
2023/10/03 05:20:13;;;;;;;8.88;5.43;;;24.40;57.10;;;;;;5028038;28;20309;-61
2023/10/03 05:22:45;;;;;;;8.60;5.15;;;24.40;57.10;;;;;;5046882;28;20056;-60
2023/10/03 05:25:13;;;;;;;8.35;4.97;;;24.40;57.10;;;;;;5042607;28;20079;-64
2023/10/03 05:27:42;;;;;;;8.23;4.97;;;24.40;57.10;;;;;;5045054;28;20437;-63
2023/10/03 05:30:14;;;;;;;7.40;4.47;;;24.40;57.00;;;;;;5046306;28;20036;-62
2023/10/03 05:32:44;;;;;;;8.63;4.95;;;24.40;57.00;;;;;;5046605;28;20413;-64
2023/10/03 05:35:12;;;;;;;8.10;4.43;;;24.40;56.90;;;;;;5048650;28;20472;-60
2023/10/03 05:37:41;;;;;;;7.70;4.22;;;24.40;56.90;;;;;;5048804;28;20055;-60
2023/10/03 05:40:20;;;;;;;7.38;4.50;;;24.40;56.90;;;;;;5050012;28;20401;-62
2023/10/03 05:42:47;;;;;;;6.43;3.70;;;24.40;56.80;;;;;;5047905;28;20036;-62
2023/10/03 05:45:14;;;;;;;6.68;3.58;;;24.40;56.80;;;;;;5050715;28;20321;-60
2023/10/03 05:47:44;;;;;;;7.30;4.20;;;24.40;56.80;;;;;;5051522;28;20056;-62
2023/10/03 05:50:10;;;;;;;7.60;4.03;;;24.40;56.80;;;;;;5047939;28;20111;-60
2023/10/03 05:52:37;;;;;;;5.90;4.18;;;24.40;56.80;;;;;;5022942;28;20088;-61
2023/10/03 05:55:03;;;;;;;5.88;3.55;;;24.40;56.70;;;;;;5050135;28;20093;-63
2023/10/03 05:57:29;;;;;;;5.78;3.80;;;24.40;56.70;;;;;;5050040;28;20056;-60
2023/10/03 05:59:55;;;;;;;6.40;3.63;;;24.30;56.60;;;;;;5050807;28;20021;-63
2023/10/03 06:02:21;;;;;;;5.95;3.80;;;24.40;56.60;;;;;;5050032;28;20092;-63
2023/10/03 06:04:49;;;;;;;4.75;3.28;;;24.40;56.60;;;;;;5025245;28;20076;-62
2023/10/03 06:07:15;;;;;;;5.38;3.20;;;24.30;56.50;;;;;;5042482;28;20155;-60
2023/10/03 06:09:42;;;;;;;5.30;3.53;;;24.30;56.50;;;;;;5048654;28;20065;-60
2023/10/03 06:12:09;;;;;;;5.15;3.30;;;24.40;56.60;;;;;;5030417;28;20120;-63
2023/10/03 06:14:36;;;;;;;6.07;3.30;;;24.30;56.50;;;;;;5027697;28;20333;-64
2023/10/03 06:17:02;;;;;;;4.88;2.88;;;24.40;56.60;;;;;;5045946;28;20066;-62
2023/10/03 06:19:30;;;;;;;5.65;3.35;;;24.40;56.60;;;;;;5047875;28;20056;-61
2023/10/03 06:21:56;;;;;;;4.78;2.92;;;24.40;56.60;;;;;;5040422;28;20029;-61
2023/10/03 06:24:25;;;;;;;6.03;3.30;;;24.40;56.60;;;;;;5044293;28;20082;-60
2023/10/03 06:26:50;;;;;;;6.38;3.33;;;24.40;56.60;;;;;;5047768;28;20154;-61
2023/10/03 06:29:17;;;;;;;5.28;3.15;;;24.40;56.60;;;;;;5048144;28;20199;-63
2023/10/03 06:31:46;;;;;;;4.57;3.13;;;24.40;56.60;;;;;;5049845;28;20365;-60
2023/10/03 06:34:12;;;;;;;5.35;2.88;;;24.40;56.70;;;;;;5026596;28;20354;-63
2023/10/03 06:36:38;;;;;;;5.88;3.25;;;24.30;56.60;;;;;;5029326;28;20247;-62
2023/10/03 06:39:05;;;;;;;4.78;2.88;;;24.30;56.60;;;;;;5024660;28;20033;-61
2023/10/03 06:41:31;;;;;;;4.88;2.90;;;24.30;56.50;;;;;;5029505;28;20094;-64
2023/10/03 06:43:58;;;;;;;4.55;2.70;;;24.40;56.60;;;;;;5028907;28;20025;-61
2023/10/03 06:46:24;;;;;;;5.18;2.92;;;24.30;56.50;;;;;;5025168;28;20034;-61
2023/10/03 06:48:53;;;;;;;5.30;3.15;;;24.40;56.60;;;;;;5028345;28;20040;-60
2023/10/03 06:51:19;;;;;;;5.05;2.72;;;24.40;56.60;;;;;;5025860;28;20116;-61
2023/10/03 06:53:48;;;;;;;5.15;3.25;;;24.40;56.60;;;;;;5029514;28;20089;-61
2023/10/03 06:56:17;;;;;;;5.07;2.85;;;24.40;56.70;;;;;;5028665;28;20021;-63
2023/10/03 06:58:43;;;;;;;4.20;2.88;;;24.40;56.70;;;;;;5021880;28;20355;-59
2023/10/03 07:01:11;;;;;;;4.25;2.95;;;24.40;56.70;;;;;;5020072;28;20033;-63
2023/10/03 07:03:40;;;;;;;5.13;2.90;;;24.30;56.60;;;;;;5024318;28;20030;-60
2023/10/03 07:06:07;;;;;;;5.20;2.72;;;24.40;56.70;;;;;;5022752;28;20111;-63
2023/10/03 07:08:34;;;;;;;4.78;2.90;;;24.40;56.70;;;;;;5021604;28;20029;-63
2023/10/03 07:11:00;;;;;;;4.57;2.65;;;24.40;56.70;;;;;;5026878;28;20049;-64
2023/10/03 07:13:27;;;;;;;5.32;2.80;;;24.40;56.70;;;;;;5029536;28;20037;-67
2023/10/03 07:15:57;;;;;;;3.92;2.58;;;24.40;56.70;;;;;;5027806;28;20111;-65
2023/10/03 07:18:23;;;;;;;4.90;2.75;;;24.40;56.70;;;;;;5024698;28;20026;-68
2023/10/03 07:20:50;;;;;;;5.15;2.83;;;24.40;56.70;;;;;;5026344;28;20048;-68
2023/10/03 07:23:17;;;;;;;4.25;2.40;;;24.40;56.70;;;;;;5025016;28;20030;-64
2023/10/03 07:25:43;;;;;;;4.95;2.38;;;24.40;56.70;;;;;;5029888;28;20056;-64
2023/10/03 07:28:09;;;;;;;3.45;2.33;;;24.40;56.70;;;;;;5027217;28;20033;-62
2023/10/03 07:30:35;;;;;;;4.25;2.35;;;24.40;56.70;;;;;;5025534;28;20042;-65
2023/10/03 07:33:01;;;;;;;3.75;2.65;;;24.40;56.70;;;;;;5025499;28;20388;-64
2023/10/03 07:35:28;;;;;;;4.43;2.75;;;24.40;56.60;;;;;;5044981;28;20112;-62
2023/10/03 07:37:54;;;;;;;4.93;2.67;;;24.40;56.70;;;;;;5047405;28;20044;-63
2023/10/03 07:40:22;;;;;;;4.47;2.17;;;24.40;56.70;;;;;;5020836;28;20428;-63
2023/10/03 07:42:49;;;;;;;4.65;2.40;;;24.40;56.70;;;;;;5025362;28;20073;-65
2023/10/03 07:45:17;;;;;;;4.82;2.72;;;24.40;56.80;;;;;;5029023;28;20348;-63
2023/10/03 07:47:44;;;;;;;2.75;2.10;;;24.40;56.80;;;;;;5045428;28;20029;-64
2023/10/03 07:50:11;;;;;;;4.00;2.60;;;24.40;56.90;;;;;;5037122;28;20034;-61
2023/10/03 07:52:38;;;;;;;4.63;2.42;;;24.40;56.90;;;;;;5045732;28;20102;-66
2023/10/03 07:55:05;;;;;;;5.82;2.70;;;24.40;57.00;;;;;;5047841;28;20033;-66
2023/10/03 07:57:31;;;;;;;3.28;2.17;;;24.40;57.00;;;;;;5047071;28;20360;-65
2023/10/03 07:59:57;;;;;;;4.65;2.40;;;24.40;57.10;;;;;;5050946;28;20040;-63
2023/10/03 08:02:32;;;;;;;4.50;2.42;;;24.40;57.10;;;;;;5021904;28;20029;-65
2023/10/03 08:05:00;;;;;;;3.00;2.00;;;24.40;57.10;;;;;;5045667;28;20348;-70
2023/10/03 08:07:31;;;;;;;4.82;2.60;;;24.40;57.20;;;;;;5038776;28;20061;-65
2023/10/03 08:10:02;;;;;;;3.90;2.30;;;24.40;57.20;;;;;;5028571;28;20017;-67
2023/10/03 08:12:29;;;;;;;4.38;2.22;;;24.40;57.30;;;;;;5023922;28;20415;-63
2023/10/03 08:14:55;;;;;;;3.63;2.30;;;24.40;57.40;;;;;;5026632;28;20045;-64
2023/10/03 08:17:30;;;;;;;3.55;2.13;;;24.40;57.40;;;;;;5025036;28;20037;-65
2023/10/03 08:19:56;;;;;;;3.35;1.88;;;24.50;57.40;;;;;;5043304;28;20340;-65
2023/10/03 08:22:22;;;;;;;4.05;2.10;;;24.40;57.30;;;;;;5021201;28;20029;-63
2023/10/03 08:24:49;;;;;;;2.83;1.98;;;24.40;57.30;;;;;;5049065;28;20028;-65
2023/10/03 08:27:18;;;;;;;3.40;1.90;;;24.40;57.30;;;;;;5026944;28;20116;-61
2023/10/03 08:29:51;;;;;;;4.18;1.98;;;24.40;57.30;;;;;;5043019;28;20044;-65
2023/10/03 08:32:17;;;;;;;3.53;2.00;;;24.40;57.30;;;;;;5026419;28;20125;-65
2023/10/03 08:34:44;;;;;;;3.05;1.75;;;24.40;57.20;;;;;;5047457;28;20187;-64
2023/10/03 08:37:21;;;;;;;2.65;1.60;;;24.40;57.20;;;;;;5045342;28;20048;-66
2023/10/03 08:39:51;;;;;;;2.10;1.67;;;24.40;57.20;;;;;;5045897;28;20432;-65
2023/10/03 08:42:35;;;;;;;2.65;1.70;;;24.40;57.70;;;;;;5027370;28;20026;-64
2023/10/03 08:45:16;;;;;;;2.55;1.50;;;24.40;57.10;;;;;;5044093;28;20028;-62
2023/10/03 08:47:49;;;;;;;2.45;1.50;;;24.40;57.10;;;;;;5028170;28;20467;-65
2023/10/03 08:50:33;;;;;;;2.40;1.33;;;24.40;57.00;;;;;;5047539;28;20047;-63
2023/10/03 08:53:26;;;;;;;3.17;1.58;;;24.40;57.00;;;;;;5012718;28;20098;-67
2023/10/03 08:55:59;;;;;;;2.80;1.63;;;24.40;57.00;;;;;;5021032;28;20052;-64
2023/10/03 08:58:26;;;;;;;3.47;1.60;;;24.40;57.00;;;;;;5044265;28;20100;-65
2023/10/03 09:01:01;;;;;;;2.17;1.17;;;24.40;57.00;;;;;;5027571;28;20409;-67
2023/10/03 09:03:47;;;;;;;2.67;1.60;;;24.40;57.10;;;;;;5025689;28;20467;-66
2023/10/03 09:06:19;;;;;;;2.30;1.40;;;24.40;57.10;;;;;;5041834;28;20022;-62
2023/10/03 09:08:48;;;;;;;1.60;1.10;;;24.40;57.10;;;;;;5038868;28;20094;-65
2023/10/03 09:11:14;;;;;;;2.53;1.38;;;24.40;57.10;;;;;;5047538;28;20021;-65
2023/10/03 09:13:40;;;;;;;2.13;1.20;;;24.40;57.80;;;;;;5045381;28;20348;-64
2023/10/03 09:16:14;;;;;;;2.42;1.33;;;24.40;57.10;;;;;;5047548;28;20068;-66
2023/10/03 09:18:41;;;;;;;1.40;0.90;;;24.40;57.10;;;;;;5025324;28;20124;-63
2023/10/03 09:21:45;;;;;;;2.15;1.23;;;24.40;57.10;;;;;;5044372;28;20047;-65
2023/10/03 09:24:17;;;;;;;1.90;1.20;;;24.40;57.10;;;;;;5042797;28;20337;-65
2023/10/03 09:26:51;;;;;;;2.25;1.00;;;24.40;57.10;;;;;;5024196;28;20165;-64
2023/10/03 09:29:29;;;;;;;;;;;24.40;57.00;;;;;;5046031;28;20021;-67
2023/10/03 09:31:57;;;;;;;1.95;0.98;;;24.40;57.00;;;;;;5027156;28;19924;-65
2023/10/03 09:34:32;;;;;;;1.83;0.93;;;24.40;57.00;;;;;;5046362;28;20045;-64
2023/10/03 09:37:03;;;;;;;2.78;1.20;;;24.40;56.90;;;;;;5046853;28;20029;-65
2023/10/03 09:39:40;;;;;;;1.38;0.82;;;24.40;56.90;;;;;;5048011;28;20038;-66
2023/10/03 09:42:19;;;;;;;2.42;1.02;;;24.40;56.80;;;;;;5041700;28;20443;-62
2023/10/03 09:44:48;;;;;;;2.67;0.82;;;24.40;56.70;;;;;;5028914;28;20029;-66
2023/10/03 09:47:27;;;;;;;1.23;0.75;;;24.40;56.70;;;;;;5026328;28;20033;-63
2023/10/03 09:50:03;;;;;;;1.52;0.80;;;24.40;56.60;;;;;;5043928;28;20097;-66
2023/10/03 09:52:30;;;;;;;1.67;0.85;;;24.40;56.50;;;;;;5010804;28;20040;-63
2023/10/03 09:55:03;;;;;;;2.47;0.73;;;24.40;56.40;;;;;;5046370;28;20029;-67
2023/10/03 09:57:30;;;;;;;1.20;0.77;;;24.50;56.40;;;;;;5041353;28;20040;-66
2023/10/03 09:59:56;;;;;;;1.67;0.90;;;24.50;56.30;;;;;;5027987;28;20131;-65
2023/10/03 10:02:37;;;;;;;1.67;0.90;;;24.50;56.30;;;;;;5028571;28;20029;-63
2023/10/03 10:05:18;;;;;;;1.25;0.70;;;24.50;56.20;;;;;;5046958;28;20032;-64
2023/10/03 10:08:12;;;;;;;1.42;0.80;;;24.50;56.10;;;;;;5036984;28;20037;-64
2023/10/03 10:10:41;;;;;;;1.52;0.80;;;24.50;56.10;;;;;;5043349;28;20104;-63
2023/10/03 10:13:20;;;;;;;1.30;0.80;;;24.50;56.10;;;;;;5018355;28;20065;-63
2023/10/03 10:16:23;;;;;;;2.38;0.80;;;24.40;56.00;;;;;;5045617;28;20082;-65
2023/10/03 10:18:54;;;;;;;1.77;0.85;;;24.50;55.90;;;;;;5040583;28;20247;-65
2023/10/03 10:21:24;;;;;;;1.13;0.75;;;24.50;55.90;;;;;;5029934;28;20051;-63
2023/10/03 10:24:16;;;;;;;2.30;0.90;;;24.50;55.80;;;;;;5047486;28;20033;-64
2023/10/03 10:26:49;;;;;;;1.20;0.55;;;24.40;55.70;;;;;;5037143;28;20390;-61
2023/10/03 10:29:19;;;;;;;1.70;0.80;;;24.50;55.70;;;;;;5039093;28;20097;-57
2023/10/03 10:31:57;;;;;;;1.70;0.90;;;24.50;55.80;;;;;;5007291;28;20175;-62
2023/10/03 10:34:46;;;;;;;1.40;0.70;;;24.50;55.80;;;;;;5014947;28;20725;-65
2023/10/03 10:37:15;;;;;;;4.13;0.65;;;24.50;55.80;;;;;;5017680;28;20092;-58
2023/10/03 10:40:04;;;;;;;1.38;0.60;;;24.60;55.80;;;;;;5018733;28;20030;-63
2023/10/03 10:42:32;;;;;;;2.10;0.70;;;24.60;55.70;;;;;;4996096;28;20128;-61
2023/10/03 10:45:04;;;;;;;2.72;0.80;;;24.70;55.60;;;;;;4989515;28;20026;-60
2023/10/03 10:47:43;;;;;;;2.25;0.77;;;24.80;55.50;;;;;;4995331;28;20029;-61
2023/10/03 10:50:09;;;;;;;0.90;0.57;;;24.90;55.40;;;;;;5000522;28;20049;-60
2023/10/03 10:53:02;;;;;;;1.20;0.50;;;25.00;55.20;;;;;;5000955;28;20105;-59
2023/10/03 10:55:29;;;;;;;1.90;0.45;;;25.10;54.90;;;;;;5012094;28;20049;-61
2023/10/03 10:58:09;;;;;;;1.30;0.60;;;25.20;54.70;;;;;;4996718;28;20023;-59
2023/10/03 11:00:36;;;;;;;1.02;0.57;;;25.30;54.30;;;;;;4994257;28;20038;-61
2023/10/03 11:03:04;;;;;;;1.17;0.70;;;25.40;54.20;;;;;;4997524;28;20040;-60
2023/10/03 11:05:47;;;;;;;1.85;0.52;;;25.40;54.60;;;;;;4998751;28;20029;-60
2023/10/03 11:08:17;;;;;;;1.95;0.60;;;25.50;53.90;;;;;;4998953;28;20036;-60
2023/10/03 11:10:54;;;;;;;0.77;0.50;;;25.50;53.80;;;;;;4994903;28;20140;-59
2023/10/03 11:13:23;;;;;;;1.30;0.60;;;25.60;53.70;;;;;;4992160;28;20461;-56
2023/10/03 11:15:53;;;;;;;0.85;0.50;;;25.70;53.60;;;;;;4999977;28;20056;-59
2023/10/03 11:18:31;;;;;;;1.85;0.60;;;25.70;53.40;;;;;;5001006;28;20390;-57
2023/10/03 11:20:58;;;;;;;1.42;0.55;;;25.80;53.20;;;;;;4995758;28;20101;-61
2023/10/03 11:23:24;;;;;;;1.70;1.08;;;25.80;53.00;;;;;;5000882;28;20113;-61
2023/10/03 11:26:00;;;;;;;0.73;0.40;;;25.90;52.80;;;;;;5002531;28;20158;-61
2023/10/03 11:28:30;;;;;;;3.35;0.77;;;25.90;52.60;;;;;;4999510;28;20113;-59
2023/10/03 11:31:03;;;;;;;2.88;0.60;;;25.90;52.40;;;;;;4997956;28;20105;-60
2023/10/03 11:33:40;;;;;;;1.52;0.60;;;26.00;52.30;;;;;;5003492;28;20114;-54
2023/10/03 11:36:14;;;;;;;1.20;0.57;;;26.00;52.30;;;;;;5023607;28;20091;-58
2023/10/03 11:38:47;;;;;;;2.38;0.70;;;26.00;52.20;;;;;;5023807;28;20107;-59
2023/10/03 11:41:13;;;;;;;2.10;0.50;;;26.00;52.10;;;;;;5045473;28;20467;-62
2023/10/03 11:43:46;;;;;;;1.10;0.60;;;26.00;52.00;;;;;;5047289;28;20033;-60
2023/10/03 11:46:15;;;;;;;2.70;0.90;;;26.10;51.90;;;;;;5045212;28;20045;-60
2023/10/03 11:48:41;;;;;;;2.95;0.60;;;26.10;52.40;;;;;;5010723;28;20359;-60
2023/10/03 11:51:07;;;;;;;1.42;0.52;;;26.10;51.60;;;;;;5042520;28;20080;-61
2023/10/03 11:53:33;;;;;;;2.33;0.60;;;26.10;51.50;;;;;;5042641;28;20061;-62
2023/10/03 11:55:59;;;;;;;3.95;1.10;;;26.10;51.40;;;;;;5043436;28;20040;-63
2023/10/03 11:58:27;;;;;;;7.28;0.95;;;26.20;51.60;;;;;;5034217;28;20033;-60
2023/10/03 12:00:53;;;;;;;5.15;0.88;;;26.20;51.70;;;;;;5044140;28;20068;-62
2023/10/03 12:03:20;;;;;;;5.22;1.00;;;26.20;51.50;;;;;;5034448;28;20101;-62
2023/10/03 12:05:46;;;;;;;2.45;0.85;;;26.20;51.40;;;;;;5051886;28;20119;-63
2023/10/03 12:08:13;;;;;;;1.98;0.90;;;26.20;51.30;;;;;;5041744;28;20076;-61
2023/10/03 12:10:41;;;;;;;2.15;1.00;;;26.20;51.10;;;;;;5043829;28;20136;-62
2023/10/03 12:13:09;;;;;;;4.68;1.05;;;26.20;51.00;;;;;;5034389;28;20048;-61
2023/10/03 12:15:41;;;;;;;3.10;1.23;;;26.10;50.80;;;;;;5049623;28;20091;-62
2023/10/03 12:18:08;;;;;;;1.38;0.75;;;26.10;50.80;;;;;;5041318;28;20067;-63
2023/10/03 12:20:36;;;;;;;1.65;0.73;;;26.10;50.80;;;;;;5032410;28;20040;-65
2023/10/03 12:23:04;;;;;;;1.30;0.70;;;26.00;50.80;;;;;;5034439;28;20109;-62
2023/10/03 12:25:31;;;;;;;2.30;0.60;;;25.90;50.80;;;;;;5032174;28;20425;-61
2023/10/03 12:27:57;;;;;;;2.08;0.70;;;25.90;50.80;;;;;;5014754;28;20433;-63
2023/10/03 12:30:23;;;;;;;2.22;0.93;;;25.80;50.70;;;;;;5038501;28;20024;-63
2023/10/03 12:32:50;;;;;;;1.85;0.77;;;25.70;50.70;;;;;;5043791;28;20126;-62
2023/10/03 12:35:17;;;;;;;1.88;0.90;;;25.70;50.70;;;;;;5047951;28;20442;-59
2023/10/03 12:37:47;;;;;;;2.92;0.73;;;25.60;50.70;;;;;;5050033;28;20043;-60
2023/10/03 12:40:17;;;;;;;2.38;0.90;;;25.60;50.70;;;;;;5031955;28;20033;-59
2023/10/03 12:42:46;;;;;;;3.72;1.10;;;25.50;50.70;;;;;;5029582;28;20033;-59
2023/10/03 12:45:20;;;;;;;1.40;0.80;;;25.50;50.70;;;;;;5035929;28;20079;-60
2023/10/03 12:47:48;;;;;;;2.67;0.90;;;25.40;50.60;;;;;;5051743;28;20047;-60
2023/10/03 12:50:24;;;;;;;2.20;0.88;;;25.40;50.70;;;;;;5034082;28;20032;-60
2023/10/03 12:52:53;;;;;;;2.33;0.98;;;25.30;50.70;;;;;;5034323;28;20041;-61
2023/10/03 12:55:20;;;;;;;2.45;1.23;;;25.30;50.70;;;;;;5033297;28;20120;-61
2023/10/03 12:57:51;;;;;;;2.40;1.00;;;25.30;50.80;;;;;;5049785;28;20171;-61
2023/10/03 13:00:23;;;;;;;4.72;1.30;;;25.20;50.80;;;;;;5052077;28;20477;-60